createdAt,value
2018-07-11T00:01:40.118Z,97690.03
2018-07-11T00:04:07.762Z,97695.96
2018-07-11T00:06:35.378Z,97692.14
2018-07-11T00:09:04.103Z,97694.19
2018-07-11T00:11:31.796Z,97698.86
2018-07-11T00:13:59.339Z,97696.56
2018-07-11T00:16:26.902Z,97691.13
2018-07-11T00:18:54.485Z,97695.58
2018-07-11T00:21:22.145Z,97692.14
2018-07-11T00:23:49.770Z,97691.89
2018-07-11T00:26:17.402Z,97695.44
2018-07-11T00:28:45.083Z,97695.69
2018-07-11T00:31:12.738Z,97703.20
2018-07-11T00:33:40.318Z,97701.28
2018-07-11T00:36:07.940Z,97704.56
2018-07-11T00:38:35.638Z,97699.86
2018-07-11T00:41:03.450Z,97701.80
2018-07-11T00:43:32.874Z,97705.71
2018-07-11T00:46:01.247Z,97699.63
2018-07-11T00:48:28.946Z,97693.02
2018-07-11T00:50:56.820Z,97688.45
2018-07-11T00:53:24.460Z,97679.55
2018-07-11T00:55:52.126Z,97679.45
2018-07-11T00:58:30.304Z,97672.34
2018-07-11T01:01:16.450Z,97665.58
2018-07-11T01:03:53.406Z,97668.64
2018-07-11T01:06:21.163Z,97662.27
2018-07-11T01:09:03.779Z,97656.81
2018-07-11T01:11:33.843Z,97665.80
2018-07-11T01:14:01.485Z,97667.56
2018-07-11T01:16:29.665Z,97671.25
2018-07-11T01:18:59.854Z,97672.78
2018-07-11T01:21:27.970Z,97673.16
2018-07-11T01:23:55.603Z,97667.35
2018-07-11T01:26:25.435Z,97660.25
2018-07-11T01:28:53.094Z,97659.00
2018-07-11T01:31:20.807Z,97660.91
2018-07-11T01:33:48.331Z,97664.59
2018-07-11T01:36:16.231Z,97663.97
2018-07-11T01:38:43.813Z,97661.05
2018-07-11T01:41:11.461Z,97659.38
2018-07-11T01:43:39.225Z,97654.82
2018-07-11T01:46:06.955Z,97654.82
2018-07-11T01:48:34.602Z,97653.16
2018-07-11T01:51:02.266Z,97649.88
2018-07-11T01:53:29.918Z,97649.11
2018-07-11T01:55:57.505Z,97654.55
2018-07-11T01:58:25.577Z,97655.17
2018-07-11T02:00:53.240Z,97658.45
2018-07-11T02:03:20.974Z,97655.42
2018-07-11T02:05:48.993Z,97658.84
2018-07-11T02:08:16.628Z,97663.50
2018-07-11T02:10:44.314Z,97658.42
2018-07-11T02:13:12.243Z,97651.08
2018-07-11T02:15:39.936Z,97654.49
2018-07-11T02:18:07.607Z,97649.69
2018-07-11T02:20:35.266Z,97651.98
2018-07-11T02:23:02.938Z,97647.91
2018-07-11T02:25:30.606Z,97644.26
2018-07-11T02:27:58.276Z,97646.63
2018-07-11T02:30:26.391Z,97646.50
2018-07-11T02:32:53.995Z,97647.37
2018-07-11T02:35:21.631Z,97650.91
2018-07-11T02:37:49.218Z,97653.56
2018-07-11T02:40:16.796Z,97656.20
2018-07-11T02:42:44.390Z,97653.15
2018-07-11T02:45:11.990Z,97651.75
2018-07-11T02:47:41.652Z,97657.19
2018-07-11T02:50:09.247Z,97661.22
2018-07-11T02:52:36.884Z,97661.85
2018-07-11T02:55:04.677Z,97665.53
2018-07-11T02:57:32.222Z,97661.98
2018-07-11T02:59:59.857Z,97660.24
2018-07-11T03:02:27.466Z,97646.81
2018-07-11T03:04:55.072Z,97653.28
2018-07-11T03:07:22.674Z,97651.75
2018-07-11T03:09:50.249Z,97651.19
2018-07-11T03:12:17.801Z,97657.14
2018-07-11T03:14:48.142Z,97651.84
2018-07-11T03:17:15.818Z,97652.23
2018-07-11T03:19:43.443Z,97656.95
2018-07-11T03:22:11.323Z,97655.94
2018-07-11T03:24:38.941Z,97651.16
2018-07-11T03:27:06.567Z,97651.27
2018-07-11T03:29:34.230Z,97653.19
2018-07-11T03:32:01.828Z,97646.58
2018-07-11T03:34:29.383Z,97641.69
2018-07-11T03:36:56.972Z,97646.25
2018-07-11T03:39:24.626Z,97646.13
2018-07-11T03:41:52.213Z,97650.94
2018-07-11T03:44:19.855Z,97642.34
2018-07-11T03:46:47.450Z,97646.27
2018-07-11T03:49:15.018Z,97642.34
2018-07-11T03:51:42.623Z,97640.95
2018-07-11T03:54:10.155Z,97636.50
2018-07-11T03:56:37.735Z,97636.36
2018-07-11T03:59:05.615Z,97632.92
2018-07-11T04:01:33.174Z,97632.55
2018-07-11T04:04:00.745Z,97631.02
2018-07-11T04:06:28.355Z,97632.70
2018-07-11T04:08:55.910Z,97632.05
2018-07-11T04:11:23.443Z,97633.20
2018-07-11T04:13:51.198Z,97628.01
2018-07-11T04:16:18.752Z,97631.69
2018-07-11T04:18:46.266Z,97633.58
2018-07-11T04:21:13.810Z,97638.79
2018-07-11T04:23:41.467Z,97631.34
2018-07-11T04:26:09.130Z,97635.27
2018-07-11T04:28:36.782Z,97638.54
2018-07-11T04:31:04.435Z,97641.59
2018-07-11T04:33:32.179Z,97640.59
2018-07-11T04:35:59.826Z,97640.38
2018-07-11T04:38:27.479Z,97640.27
2018-07-11T04:40:55.109Z,97647.50
2018-07-11T04:43:25.040Z,97650.52
2018-07-11T04:45:52.718Z,97649.66
2018-07-11T04:48:20.605Z,97654.09
2018-07-11T04:50:49.390Z,97655.27
2018-07-11T04:53:21.609Z,97664.77
2018-07-11T04:55:51.530Z,97672.77
2018-07-11T04:58:19.080Z,97675.72
2018-07-11T05:00:46.634Z,97678.52
2018-07-11T05:03:14.290Z,97676.64
2018-07-11T05:05:41.879Z,97676.91
2018-07-11T05:08:09.448Z,97675.55
2018-07-11T05:10:36.991Z,97678.11
2018-07-11T05:13:04.581Z,97686.34
2018-07-11T05:15:32.131Z,97684.59
2018-07-11T05:17:59.666Z,97684.73
2018-07-11T05:20:27.231Z,97678.75
2018-07-11T05:22:54.766Z,97683.56
2018-07-11T05:25:22.325Z,97690.04
2018-07-11T05:27:49.847Z,97693.09
2018-07-11T05:30:17.416Z,97697.27
2018-07-11T05:32:44.957Z,97702.48
2018-07-11T05:35:12.598Z,97701.56
2018-07-11T05:37:40.219Z,97704.71
2018-07-11T05:40:07.795Z,97701.41
2018-07-11T05:42:35.370Z,97704.60
2018-07-11T05:45:02.915Z,97703.94
2018-07-11T05:47:30.503Z,97705.15
2018-07-11T05:49:58.039Z,97708.97
2018-07-11T05:52:25.630Z,97708.53
2018-07-11T05:54:53.169Z,97710.38
2018-07-11T05:57:20.718Z,97714.58
2018-07-11T05:59:48.274Z,97711.27
2018-07-11T06:02:15.833Z,97710.22
2018-07-11T06:04:43.395Z,97706.78
2018-07-11T06:07:12.123Z,97706.70
2018-07-11T06:09:39.694Z,97706.95
2018-07-11T06:12:07.225Z,97708.20
2018-07-11T06:14:34.774Z,97709.34
2018-07-11T06:17:02.363Z,97705.89
2018-07-11T06:19:29.913Z,97707.44
2018-07-11T06:21:57.505Z,97706.02
2018-07-11T06:24:25.078Z,97714.15
2018-07-11T06:26:52.838Z,97716.08
2018-07-11T06:29:20.390Z,97719.73
2018-07-11T06:31:47.958Z,97723.13
2018-07-11T06:34:15.482Z,97716.13
2018-07-11T06:36:43.027Z,97717.78
2018-07-11T06:39:10.583Z,97725.67
2018-07-11T06:41:38.129Z,97721.30
2018-07-11T06:44:05.701Z,97721.28
2018-07-11T06:46:33.263Z,97728.82
2018-07-11T06:49:00.871Z,97717.30
2018-07-11T06:51:28.418Z,97718.04
2018-07-11T06:53:55.986Z,97711.77
2018-07-11T06:56:23.537Z,97714.05
2018-07-11T06:58:51.079Z,97714.13
2018-07-11T07:01:18.662Z,97718.00
2018-07-11T07:03:46.236Z,97720.41
2018-07-11T07:06:13.862Z,97723.64
2018-07-11T07:08:41.410Z,97723.97
2018-07-11T07:11:09.033Z,97723.03
2018-07-11T07:13:36.554Z,97723.69
2018-07-11T07:16:04.222Z,97724.52
2018-07-11T07:18:31.783Z,97726.69
2018-07-11T07:20:59.354Z,97720.36
2018-07-11T07:23:26.898Z,97723.48
2018-07-11T07:25:54.434Z,97721.19
2018-07-11T07:28:22.047Z,97721.61
2018-07-11T07:30:49.591Z,97725.13
2018-07-11T07:33:17.154Z,97725.52
2018-07-11T07:35:44.712Z,97719.52
2018-07-11T07:38:12.337Z,97714.83
2018-07-11T07:40:39.910Z,97711.67
2018-07-11T07:43:07.510Z,97708.09
2018-07-11T07:45:35.186Z,97709.69
2018-07-11T07:48:02.795Z,97711.25
2018-07-11T07:50:30.494Z,97712.05
2018-07-11T07:52:58.271Z,97707.69
2018-07-11T07:55:25.734Z,97711.05
2018-07-11T07:57:53.342Z,97704.16
2018-07-11T08:00:21.030Z,97703.17
2018-07-11T08:02:48.732Z,97705.30
2018-07-11T08:05:16.272Z,97702.05
2018-07-11T08:07:43.810Z,97702.59
2018-07-11T08:10:11.373Z,97703.59
2018-07-11T08:12:38.938Z,97702.79
2018-07-11T08:15:07.289Z,97700.09
2018-07-11T08:17:34.995Z,97695.74
2018-07-11T08:20:02.590Z,97693.98
2018-07-11T08:23:43.298Z,97698.75
2018-07-11T08:26:22.743Z,97690.91
2018-07-11T08:29:13.030Z,97698.59
2018-07-11T08:32:11.233Z,97688.80
2018-07-11T08:34:52.950Z,97685.77
2018-07-11T08:37:40.474Z,97681.53
2018-07-11T08:44:32.990Z,97692.78
2018-07-11T08:49:20.070Z,97697.55
2018-07-11T08:52:23.781Z,97699.39
2018-07-11T08:57:11.293Z,97702.05
2018-07-11T08:59:53.514Z,97696.75
2018-07-11T09:03:32.216Z,97701.44
2018-07-11T09:06:13.879Z,97692.34
2018-07-11T09:08:52.783Z,97693.66
2018-07-11T09:11:44.543Z,97692.36
2018-07-11T09:16:44.860Z,97698.73
2018-07-11T09:19:53.715Z,97700.14
2018-07-11T09:22:32.630Z,97688.48
2018-07-11T09:25:00.152Z,97687.94
2018-07-11T09:27:27.679Z,97690.11
2018-07-11T09:29:55.253Z,97686.32
2018-07-11T09:32:22.810Z,97685.38
2018-07-11T09:34:50.486Z,97683.78
2018-07-11T09:37:18.029Z,97684.64
2018-07-11T09:39:45.567Z,97679.73
2018-07-11T09:42:13.206Z,97678.65
2018-07-11T09:44:40.826Z,97673.29
2018-07-11T09:47:13.889Z,97673.95
2018-07-11T09:49:41.481Z,97666.50
2018-07-11T09:52:09.107Z,97672.17
2018-07-11T09:54:36.743Z,97671.26
2018-07-11T09:57:04.426Z,97663.16
2018-07-11T09:59:32.294Z,97661.34
2018-07-11T10:01:59.977Z,97664.94
2018-07-11T10:04:27.692Z,97663.93
2018-07-11T10:06:55.366Z,97662.20
2018-07-11T10:09:23.022Z,97670.06
2018-07-11T10:11:50.746Z,97664.34
2018-07-11T10:14:18.313Z,97669.28
2018-07-11T10:16:45.862Z,97670.86
2018-07-11T10:19:13.494Z,97665.03
2018-07-11T10:21:41.108Z,97664.76
2018-07-11T10:24:08.757Z,97669.64
2018-07-11T10:26:36.300Z,97663.69
2018-07-11T10:29:03.875Z,97665.00
2018-07-11T10:31:31.404Z,97660.94
2018-07-11T10:33:58.970Z,97665.40
2018-07-11T10:36:26.587Z,97663.05
2018-07-11T10:38:54.667Z,97659.83
2018-07-11T10:41:22.248Z,97663.23
2018-07-11T10:43:49.849Z,97669.63
2018-07-11T10:46:17.502Z,97666.73
2018-07-11T10:48:45.015Z,97657.39
2018-07-11T10:51:12.602Z,97659.19
2018-07-11T10:53:40.206Z,97657.77
2018-07-11T10:56:07.747Z,97659.47
2018-07-11T10:58:35.537Z,97659.57
2018-07-11T11:01:05.698Z,97663.39
2018-07-11T11:03:32.130Z,97666.58
2018-07-11T11:05:59.735Z,97659.37
2018-07-11T11:08:28.166Z,97661.66
2018-07-11T11:10:55.800Z,97658.44
2018-07-11T11:13:23.911Z,97657.81
2018-07-11T11:15:52.172Z,97653.37
2018-07-11T11:18:20.425Z,97653.23
2018-07-11T11:20:49.329Z,97644.00
2018-07-11T11:23:17.062Z,97649.61
2018-07-11T11:25:44.681Z,97640.50
2018-07-11T11:28:12.277Z,97645.80
2018-07-11T11:30:39.855Z,97642.14
2018-07-11T11:33:07.433Z,97640.87
2018-07-11T11:35:35.041Z,97640.87
2018-07-11T11:38:02.678Z,97643.80
2018-07-11T11:40:30.298Z,97633.46
2018-07-11T11:42:57.959Z,97639.06
2018-07-11T11:45:25.558Z,97639.50
2018-07-11T11:47:59.235Z,97639.63
2018-07-11T11:50:27.593Z,97645.55
2018-07-11T11:53:13.836Z,97644.86
2018-07-11T11:55:41.598Z,97643.19
2018-07-11T11:58:09.252Z,97643.81
2018-07-11T12:00:36.842Z,97643.43
2018-07-11T12:03:04.787Z,97644.77
2018-07-11T12:05:32.417Z,97640.95
2018-07-11T12:07:59.942Z,97649.11
2018-07-11T12:10:27.499Z,97646.91
2018-07-11T12:12:55.096Z,97651.39
2018-07-11T12:15:22.662Z,97645.09
2018-07-11T12:17:50.279Z,97644.41
2018-07-11T12:20:17.824Z,97640.84
2018-07-11T12:22:45.507Z,97639.47
2018-07-11T12:25:13.099Z,97640.80
2018-07-11T12:27:40.780Z,97647.86
2018-07-11T12:30:08.308Z,97647.77
2018-07-11T12:32:35.978Z,97644.32
2018-07-11T12:35:03.631Z,97643.64
2018-07-11T12:37:31.331Z,97643.73
2018-07-11T12:39:58.943Z,97642.75
2018-07-11T12:42:26.538Z,97642.00
2018-07-11T12:44:54.157Z,97639.38
2018-07-11T12:47:27.362Z,97639.00
2018-07-11T12:49:55.046Z,97638.91
2018-07-11T12:52:22.670Z,97642.28
2018-07-11T12:54:50.346Z,97647.95
2018-07-11T12:57:18.031Z,97652.03
2018-07-11T12:59:46.174Z,97659.55
2018-07-11T13:02:13.931Z,97661.59
2018-07-11T13:04:41.627Z,97663.54
2018-07-11T13:07:09.266Z,97670.52
2018-07-11T13:09:37.026Z,97675.58
2018-07-11T13:12:05.043Z,97682.95
2018-07-11T13:14:32.566Z,97681.98
2018-07-11T13:17:00.986Z,97678.91
2018-07-11T13:19:28.551Z,97695.33
2018-07-11T13:21:56.173Z,97689.22
2018-07-11T13:24:23.742Z,97687.58
2018-07-11T13:26:51.316Z,97691.84
2018-07-11T13:29:18.902Z,97685.63
2018-07-11T13:31:46.542Z,97683.37
2018-07-11T13:34:14.184Z,97688.14
2018-07-11T13:36:41.858Z,97690.51
2018-07-11T13:39:15.246Z,97685.83
2018-07-11T13:41:43.534Z,97691.54
2018-07-11T13:44:11.208Z,97696.64
2018-07-11T13:46:38.827Z,97702.14
2018-07-11T13:49:06.691Z,97701.05
2018-07-11T13:51:34.258Z,97704.50
2018-07-11T13:54:01.926Z,97707.53
2018-07-11T13:56:29.542Z,97703.11
2018-07-11T13:58:57.778Z,97697.06
2018-07-11T14:01:26.382Z,97692.19
2018-07-11T14:03:54.070Z,97690.76
2018-07-11T14:06:21.726Z,97688.48
2018-07-11T14:08:49.529Z,97681.11
2018-07-11T14:11:17.201Z,97677.69
2018-07-11T14:13:44.955Z,97678.06
2018-07-11T14:16:12.646Z,97680.23
2018-07-11T14:18:40.342Z,97667.23
2018-07-11T14:21:07.926Z,97663.02
2018-07-11T14:23:37.856Z,97660.12
2018-07-11T14:26:05.594Z,97668.56
2018-07-11T14:28:33.698Z,97671.05
2018-07-11T14:31:02.103Z,97662.56
2018-07-11T14:33:31.079Z,97664.06
2018-07-11T14:35:59.156Z,97671.80
2018-07-11T14:38:27.783Z,97667.58
2018-07-11T14:40:55.846Z,97670.95
2018-07-11T14:43:23.534Z,97670.30
2018-07-11T14:45:52.321Z,97672.97
2018-07-11T14:48:20.218Z,97675.91
2018-07-11T14:50:47.879Z,97677.20
2018-07-11T14:53:15.519Z,97676.14
2018-07-11T14:55:43.304Z,97682.09
2018-07-11T14:58:10.985Z,97684.13
2018-07-11T15:00:38.534Z,97685.42
2018-07-11T15:03:06.134Z,97692.35
2018-07-11T15:05:33.776Z,97694.85
2018-07-11T15:08:01.455Z,97693.38
2018-07-11T15:10:29.090Z,97700.97
2018-07-11T15:12:56.681Z,97689.16
2018-07-11T15:15:24.303Z,97689.10
2018-07-11T15:17:51.894Z,97694.23
2018-07-11T15:20:19.554Z,97687.20
2018-07-11T15:22:47.226Z,97696.53
2018-07-11T15:25:14.850Z,97687.48
2018-07-11T15:27:42.459Z,97679.17
2018-07-11T15:30:09.998Z,97678.47
2018-07-11T15:32:37.767Z,97679.09
2018-07-11T15:35:05.639Z,97681.61
2018-07-11T15:37:33.280Z,97681.47
2018-07-11T15:40:02.819Z,97673.44
2018-07-11T15:42:30.728Z,97673.41
2018-07-11T15:44:58.409Z,97684.22
2018-07-11T15:47:27.436Z,97674.22
2018-07-11T15:49:55.877Z,97672.31
2018-07-11T15:52:24.791Z,97672.35
2018-07-11T15:54:55.365Z,97674.27
2018-07-11T15:57:33.319Z,97683.42
2018-07-11T16:00:06.639Z,97680.45
2018-07-11T16:02:39.064Z,97674.53
2018-07-11T16:05:06.808Z,97676.30
2018-07-11T16:07:34.797Z,97679.48
2018-07-11T16:10:02.495Z,97678.78
2018-07-11T16:12:30.118Z,97683.94
2018-07-11T16:14:57.762Z,97686.02
2018-07-11T16:17:25.345Z,97674.10
2018-07-11T16:19:53.048Z,97673.84
2018-07-11T16:22:21.209Z,97670.69
2018-07-11T16:24:48.890Z,97678.29
2018-07-11T16:27:16.592Z,97674.82
2018-07-11T16:29:44.162Z,97674.38
2018-07-11T16:32:11.817Z,97676.19
2018-07-11T16:34:39.459Z,97673.64
2018-07-11T16:37:07.081Z,97672.23
2018-07-11T16:39:34.748Z,97673.73
2018-07-11T16:42:03.839Z,97665.73
2018-07-11T16:44:31.822Z,97667.81
2018-07-11T16:47:00.891Z,97666.19
2018-07-11T16:49:29.137Z,97662.92
2018-07-11T16:51:57.598Z,97669.53
2018-07-11T16:54:25.297Z,97666.08
2018-07-11T16:56:52.962Z,97664.99
2018-07-11T16:59:23.167Z,97669.22
2018-07-11T17:01:59.230Z,97664.89
2018-07-11T17:04:29.535Z,97666.51
2018-07-11T17:06:57.206Z,97672.67
2018-07-11T17:09:25.168Z,97676.78
2018-07-11T17:11:52.855Z,97676.36
2018-07-11T17:14:22.056Z,97675.91
2018-07-11T17:16:59.939Z,97673.86
2018-07-11T17:19:36.721Z,97675.38
2018-07-11T17:22:04.922Z,97679.59
2018-07-11T17:24:37.191Z,97677.55
2018-07-11T17:27:04.842Z,97669.86
2018-07-11T17:29:32.634Z,97672.76
2018-07-11T17:32:03.810Z,97676.13
2018-07-11T17:34:32.075Z,97675.72
2018-07-11T17:37:01.625Z,97680.12
2018-07-11T17:40:35.306Z,97686.29
2018-07-11T17:43:02.990Z,97679.70
2018-07-11T17:45:30.618Z,97678.49
2018-07-11T17:48:11.192Z,97687.16
2018-07-11T17:50:38.861Z,97685.75
2018-07-11T17:53:09.974Z,97682.41
2018-07-11T17:55:50.761Z,97684.88
2018-07-11T17:58:20.041Z,97681.65
2018-07-11T18:00:51.537Z,97684.04
2018-07-11T18:05:34.662Z,97682.07
2018-07-11T18:08:06.796Z,97678.08
2018-07-11T18:10:52.594Z,97677.45
2018-07-11T18:13:34.616Z,97683.16
2018-07-11T18:16:51.589Z,97686.20
2018-07-11T18:21:38.963Z,97682.52
2018-07-11T18:26:24.627Z,97682.95
2018-07-11T18:31:04.383Z,97689.95
2018-07-11T18:33:48.543Z,97692.56
2018-07-11T18:36:53.377Z,97692.73
2018-07-11T18:39:27.515Z,97701.34
2018-07-11T18:42:06.356Z,97692.70
2018-07-11T18:44:45.952Z,97695.62
2018-07-11T18:47:22.927Z,97698.43
2018-07-11T18:52:06.690Z,97703.64
2018-07-11T18:56:00.502Z,97709.61
2018-07-11T18:59:36.911Z,97706.92
2018-07-11T19:02:10.424Z,97708.39
2018-07-11T19:05:20.445Z,97711.56
2018-07-11T19:07:52.730Z,97712.57
2018-07-11T19:11:31.090Z,97713.91
2018-07-11T19:14:03.418Z,97719.58
2018-07-11T19:18:49.846Z,97718.88
2018-07-11T19:21:23.975Z,97721.56
2018-07-11T19:24:01.449Z,97719.39
2018-07-11T19:26:42.855Z,97719.17
2018-07-11T19:29:45.856Z,97718.19
2018-07-11T19:32:23.358Z,97720.55
2018-07-11T19:34:59.738Z,97719.30
2018-07-11T19:38:33.491Z,97722.02
2018-07-11T19:41:23.558Z,97726.12
2018-07-11T19:43:54.414Z,97729.66
2018-07-11T19:46:31.390Z,97725.37
2018-07-11T19:49:10.890Z,97719.17
2018-07-11T19:51:49.295Z,97731.48
2018-07-11T19:54:54.420Z,97727.63
2018-07-11T19:57:22.512Z,97729.32
2018-07-11T19:59:50.143Z,97723.72
2018-07-11T20:02:17.745Z,97725.22
2018-07-11T20:04:45.429Z,97729.25
2018-07-11T20:07:13.106Z,97732.64
2018-07-11T20:09:40.704Z,97724.80
2018-07-11T20:12:08.338Z,97725.49
2018-07-11T20:14:36.027Z,97732.96
2018-07-11T20:17:03.618Z,97732.96
2018-07-11T20:19:31.230Z,97730.23
2018-07-11T20:21:58.889Z,97732.50
2018-07-11T20:24:26.526Z,97736.87
2018-07-11T20:26:54.237Z,97734.88
2018-07-11T20:29:21.867Z,97737.17
2018-07-11T20:31:49.442Z,97740.83
2018-07-11T20:34:17.043Z,97738.03
2018-07-11T20:36:44.689Z,97747.78
2018-07-11T20:39:12.266Z,97748.55
2018-07-11T20:41:39.946Z,97749.44
2018-07-11T20:44:07.544Z,97744.00
2018-07-11T20:46:35.228Z,97748.03
2018-07-11T20:49:08.556Z,97752.30
2018-07-11T20:51:36.114Z,97753.45
2018-07-11T20:54:03.694Z,97749.61
2018-07-11T20:56:31.343Z,97751.07
2018-07-11T21:00:09.795Z,97748.78
2018-07-11T21:02:48.587Z,97749.47
2018-07-11T21:05:29.330Z,97754.86
2018-07-11T21:08:10.302Z,97746.59
2018-07-11T21:12:56.854Z,97755.83
2018-07-11T21:15:50.617Z,97749.88
2018-07-11T21:18:32.360Z,97746.62
2018-07-11T21:20:59.907Z,97749.81
2018-07-11T21:23:27.779Z,97748.83
2018-07-11T21:25:55.358Z,97753.14
2018-07-11T21:28:22.890Z,97755.55
2018-07-11T21:30:50.434Z,97757.99
2018-07-11T21:33:17.997Z,97754.31
2018-07-11T21:35:45.597Z,97755.20
2018-07-11T21:38:13.158Z,97756.73
2018-07-11T21:40:40.758Z,97759.80
2018-07-11T21:43:08.294Z,97759.30
2018-07-11T21:45:35.882Z,97755.25
2018-07-11T21:48:03.440Z,97754.61
2018-07-11T21:50:31.015Z,97758.80
2018-07-11T21:52:58.596Z,97751.55
2018-07-11T21:55:26.197Z,97758.55
2018-07-11T21:57:53.882Z,97754.50
2018-07-11T22:00:32.611Z,97750.08
2018-07-11T22:03:00.207Z,97752.59
2018-07-11T22:05:28.897Z,97753.98
2018-07-11T22:07:56.598Z,97767.19
2018-07-11T22:10:24.190Z,97758.31
2018-07-11T22:12:51.726Z,97762.50
2018-07-11T22:15:19.336Z,97761.20
2018-07-11T22:17:58.326Z,97760.58
2018-07-11T22:20:24.718Z,97759.82
2018-07-11T22:22:51.138Z,97768.09
2018-07-11T22:25:17.523Z,97763.51
2018-07-11T22:27:43.851Z,97757.80
2018-07-11T22:30:10.178Z,97761.84
2018-07-11T22:32:36.926Z,97762.11
2018-07-11T22:35:03.262Z,97764.64
2018-07-11T22:37:29.613Z,97764.50
2018-07-11T22:39:55.952Z,97767.20
2018-07-11T22:42:22.315Z,97770.86
2018-07-11T22:44:48.689Z,97772.14
2018-07-11T22:47:15.061Z,97765.66
2018-07-11T22:49:45.905Z,97768.81
2018-07-11T22:52:12.258Z,97779.84
2018-07-11T22:54:38.603Z,97769.95
2018-07-11T22:57:04.937Z,97768.55
2018-07-11T22:59:31.330Z,97764.88
2018-07-11T23:01:57.669Z,97763.35
2018-07-11T23:04:24.058Z,97760.56
2018-07-11T23:06:50.379Z,97757.91
2018-07-11T23:09:16.701Z,97760.80
2018-07-11T23:11:43.047Z,97761.06
2018-07-11T23:14:09.382Z,97755.25
2018-07-11T23:16:35.734Z,97754.86
2018-07-11T23:19:02.065Z,97751.03
2018-07-11T23:21:28.414Z,97744.83
2018-07-11T23:23:54.758Z,97740.64
2018-07-11T23:26:21.114Z,97739.51
2018-07-11T23:28:47.447Z,97733.16
2018-07-11T23:31:13.808Z,97729.61
2018-07-11T23:33:40.134Z,97729.23
2018-07-11T23:36:06.480Z,97727.31
2018-07-11T23:38:32.841Z,97720.19
2018-07-11T23:40:59.464Z,97720.43
2018-07-11T23:43:25.822Z,97725.50
2018-07-11T23:45:52.163Z,97734.50
2018-07-11T23:48:18.505Z,97728.92
2018-07-11T23:50:44.885Z,97728.29
2018-07-11T23:53:11.222Z,97733.30
2018-07-11T23:55:37.594Z,97735.01
2018-07-11T23:58:03.923Z,97736.98
